»·PEaware :: N6818R KTUS-0NM7

N6818R :: KTUS-0NM7

FLIGHT INFORMATION

Flight Status: Arrived
Operator: Privately registered:
United States
More flights under this callsign
Pilot: John P. (31881)
Aircraft: BEECH AIRCRAFT 300 SUPER KING AIR
(BE30)
More flights by this aircraft type
Origin: KTUS Tucson Intl
United States
Destination: 0NM7 Negrito Airstrip
United States
More flights between these airports :: More routes between these airports
Route:
File this flight plan on PilotEdge
Remarks:
Altitude:
(Current/Filed)
13,500ft
Speed:
(Current/Filed)
240kts
Departed: 22-Nov-20 10:04 AM
Arrived: 22-Nov-20 11:10 AM
Distance/Time
Traveled:
6458nm/1:06
Distance/Time
To Go:
Arrived

Flight Plot

Page will automatically refresh every two minutes.

Flight plan parsing failed; only flown route is shown


Map Options




Map Legend


Flown Route
Filed Route
Departure Airport
Arrival Airport
Navaid (VOR, NDB)
Fix

Horizontal Profiles

Position Reports

Time Latitude Longitude Heading Altitude Ground
Speed
22-Nov-20 09:17 0.000000 0.000000 0 0ft 0kts
22-Nov-20 09:18 0.000000 0.000000 0 0ft 0kts
22-Nov-20 09:19 0.000408 0.013975 0 5ft 0kts
22-Nov-20 09:20 0.000408 0.013975 0 5ft 0kts
22-Nov-20 09:21 0.000408 0.013975 0 5ft 0kts
22-Nov-20 09:22 0.000408 0.013975 0 5ft 0kts
22-Nov-20 09:23 0.000408 0.013975 0 5ft 0kts
22-Nov-20 09:24 0.000408 0.013975 0 5ft 0kts
22-Nov-20 09:25 0.000408 0.013975 0 5ft 0kts
22-Nov-20 09:26 0.000408 0.013975 0 5ft 0kts
22-Nov-20 09:28 0.000408 0.013975 0 5ft 0kts
22-Nov-20 09:29 32.116375 -110.934483 132 2594ft 0kts
22-Nov-20 09:30 32.116375 -110.934484 132 2611ft 0kts
22-Nov-20 09:31 32.116375 -110.934484 132 2611ft 0kts
22-Nov-20 09:32 32.116375 -110.934484 132 2611ft 0kts
22-Nov-20 09:33 32.116375 -110.934484 132 2611ft 0kts
22-Nov-20 09:34 32.116375 -110.934484 132 2611ft 0kts
22-Nov-20 09:35 32.116375 -110.934484 132 2611ft 0kts
22-Nov-20 09:36 32.116375 -110.934484 132 2611ft 0kts
22-Nov-20 09:37 32.116375 -110.934484 132 2611ft 0kts
22-Nov-20 09:38 32.116375 -110.934484 132 2611ft 0kts
22-Nov-20 09:39 32.116375 -110.934484 132 2611ft 0kts
22-Nov-20 09:40 32.116375 -110.934484 132 2611ft 0kts
22-Nov-20 09:41 32.116375 -110.934484 132 2611ft 0kts
22-Nov-20 09:42 32.116375 -110.934484 132 2611ft 0kts
22-Nov-20 09:43 32.116375 -110.934484 132 2611ft 0kts
22-Nov-20 09:44 32.116375 -110.934484 132 2611ft 0kts
22-Nov-20 09:44 32.116375 -110.934484 132 2611ft 0kts
22-Nov-20 09:46 32.116375 -110.934484 132 2611ft 0kts
22-Nov-20 09:47 32.116375 -110.934484 132 2611ft 0kts
22-Nov-20 09:47 32.116375 -110.934484 132 2611ft 0kts
22-Nov-20 09:49 32.116375 -110.934484 132 2611ft 0kts
22-Nov-20 09:49 32.116375 -110.934484 132 2611ft 0kts
22-Nov-20 09:51 32.116375 -110.934484 132 2611ft 0kts
22-Nov-20 09:51 32.116375 -110.934484 132 2611ft 0kts
22-Nov-20 09:52 32.116375 -110.934484 132 2611ft 0kts
22-Nov-20 09:53 32.116375 -110.934484 132 2611ft 0kts
22-Nov-20 09:54 32.116510 -110.934712 173 2610ft 2kts
22-Nov-20 09:55 32.116535 -110.934856 240 2610ft 6kts
22-Nov-20 09:56 32.117600 -110.938511 278 2601ft 14kts
22-Nov-20 09:57 32.120161 -110.941681 315 2599ft 12kts
22-Nov-20 09:58 32.122567 -110.944522 312 2592ft 13kts
22-Nov-20 09:59 32.124891 -110.947490 186 2580ft 0kts
22-Nov-20 10:00 32.124701 -110.947704 227 2581ft 3kts
22-Nov-20 10:01 32.124510 -110.947940 226 2582ft 0kts
22-Nov-20 10:02 32.123763 -110.948309 146 2584ft 0kts
22-Nov-20 10:03 32.114310 -110.937316 134 2612ft 115kts
22-Nov-20 10:04 32.083014 -110.896965 130 3401ft 194kts
22-Nov-20 10:05 32.048853 -110.840438 130 4212ft 226kts
22-Nov-20 10:06 32.001512 -110.788157 137 4569ft 251kts
22-Nov-20 10:07 31.993779 -110.730222 18 7279ft 165kts
22-Nov-20 10:08 32.036194 -110.711402 30 9304ft 165kts
22-Nov-20 10:09 32.077102 -110.684578 30 11097ft 172kts
22-Nov-20 10:10 32.119131 -110.657208 30 12849ft 180kts
22-Nov-20 10:11 32.169196 -110.624088 31 13479ft 250kts
22-Nov-20 10:12 32.235818 -110.579415 30 13479ft 290kts
22-Nov-20 10:13 32.308915 -110.535858 14 13497ft 300kts
22-Nov-20 10:14 32.381853 -110.492552 46 13493ft 300kts
22-Nov-20 10:15 32.432873 -110.415622 54 13498ft 299kts
22-Nov-20 10:16 32.481522 -110.335160 56 13512ft 300kts
22-Nov-20 10:17 32.529549 -110.254423 56 13503ft 299kts
22-Nov-20 10:18 32.572230 -110.182646 57 16279ft 203kts
22-Nov-20 10:19 32.606061 -110.125219 56 17455ft 241kts
22-Nov-20 10:20 32.649341 -110.052107 56 17517ft 293kts
22-Nov-20 10:21 32.697924 -109.969803 56 17524ft 311kts
22-Nov-20 10:22 32.747862 -109.884988 55 17499ft 312kts
22-Nov-20 10:23 32.796846 -109.801664 56 17513ft 299kts
22-Nov-20 10:24 32.843066 -109.722787 55 17506ft 293kts
22-Nov-20 10:25 32.889513 -109.643385 56 17509ft 291kts
22-Nov-20 10:26 32.935896 -109.563921 55 17513ft 291kts
22-Nov-20 10:27 32.982057 -109.484664 56 17512ft 292kts
22-Nov-20 10:28 33.028119 -109.405431 56 16872ft 289kts
22-Nov-20 10:29 33.064433 -109.343726 56 16111ft 299kts
22-Nov-20 10:30 33.064433 -109.343726 56 16111ft 299kts
22-Nov-20 10:31 33.064433 -109.343726 56 16111ft 299kts
22-Nov-20 10:32 33.064433 -109.343726 56 16111ft 299kts
22-Nov-20 10:33 33.064433 -109.343726 56 16111ft 299kts
22-Nov-20 10:34 33.064433 -109.343726 56 16111ft 299kts
22-Nov-20 10:35 33.064433 -109.343726 56 16111ft 299kts
22-Nov-20 10:36 33.064433 -109.343726 56 16111ft 299kts
22-Nov-20 10:37 33.064433 -109.343726 56 16111ft 299kts
22-Nov-20 10:38 33.064433 -109.343726 56 16111ft 299kts
22-Nov-20 10:39 33.064433 -109.343726 56 16111ft 299kts
22-Nov-20 10:40 33.064433 -109.343726 56 16111ft 299kts
22-Nov-20 10:41 33.064433 -109.343726 56 16111ft 299kts
22-Nov-20 10:42 33.064433 -109.343726 56 16111ft 299kts
22-Nov-20 10:43 33.064433 -109.343726 56 16111ft 299kts
22-Nov-20 10:44 33.064433 -109.343726 56 16111ft 299kts
22-Nov-20 10:45 33.064433 -109.343726 56 16111ft 299kts
22-Nov-20 10:46 33.064433 -109.343726 56 16111ft 299kts
22-Nov-20 10:47 33.064433 -109.343726 56 16111ft 299kts
22-Nov-20 10:48 33.064433 -109.343726 56 16111ft 299kts
22-Nov-20 10:49 33.064433 -109.343726 56 16111ft 299kts
22-Nov-20 10:50 33.064433 -109.343726 56 16111ft 299kts
22-Nov-20 10:51 33.064433 -109.343726 56 16111ft 299kts
22-Nov-20 10:52 33.094400 -109.293417 56 15493ft 299kts
22-Nov-20 10:53 33.142459 -109.213502 55 14470ft 291kts
22-Nov-20 10:54 33.189179 -109.135754 56 13472ft 285kts
22-Nov-20 10:55 33.234767 -109.059298 55 12548ft 276kts
22-Nov-20 10:56 33.277986 -108.985997 56 12056ft 265kts
22-Nov-20 10:57 33.320119 -108.914444 55 11544ft 260kts
22-Nov-20 10:58 33.361501 -108.844091 56 11061ft 257kts
22-Nov-20 10:59 33.407941 -108.780192 33 10543ft 257kts
22-Nov-20 11:00 33.466493 -108.739710 30 11246ft 232kts
22-Nov-20 11:01 33.528454 -108.697651 30 11522ft 274kts
22-Nov-20 11:02 33.548838 -108.620363 119 11532ft 278kts
22-Nov-20 11:03 33.503927 -108.544340 136 11496ft 281kts
22-Nov-20 11:04 33.433065 -108.511235 163 11491ft 266kts
22-Nov-20 11:05 33.368802 -108.520819 240 11493ft 252kts
22-Nov-20 11:06 33.398479 -108.578502 4 11497ft 244kts
22-Nov-20 11:07 33.458914 -108.551326 26 10989ft 214kts
22-Nov-20 11:08 33.506082 -108.539767 356 8239ft 156kts
22-Nov-20 11:09 33.530439 -108.541117 358 8172ft 0kts
22-Nov-20 11:10 0.000408 0.013975 0 5ft 0kts

Navigation Log

Ident Type
Flight plan parsing failed, navigation log unavailable